Time;durP1;ratioP1;P1;durP2;ratioP2;P2;SDS_P1;SDS_P2;PMS_P1;PMS_P2;Temp;Humidity;BMP_temperature;BMP_pressure;BME280_temperature;BME280_humidity;BME280_pressure;Samples;Min_cycle;Max_cycle;Signal;HPM_P1;HPM_P2
2023/05/24 00:02:25;;;;;;;0.70;0.30;;;4.70;1.30;;;;;;5072720;28;20083;-78
2023/05/24 00:04:51;;;;;;;0.57;0.57;;;4.80;1.00;;;;;;5070249;28;20037;-79
2023/05/24 00:07:18;;;;;;;0.20;0.20;;;4.90;1.00;;;;;;5070652;28;20541;-78
2023/05/24 00:09:44;;;;;;;0.65;0.65;;;4.90;40.20;;;;;;5073003;28;20068;-78
2023/05/24 00:12:09;;;;;;;0.90;0.90;;;4.90;1.00;;;;;;5071259;28;20052;-79
2023/05/24 00:14:35;;;;;;;20.63;1.17;;;4.90;1.00;;;;;;5070973;28;20402;-77
2023/05/24 00:17:01;;;;;;;0.20;0.20;;;4.90;1.00;;;;;;5069177;28;20458;-79
2023/05/24 00:19:27;;;;;;;1.50;1.20;;;4.80;55.90;;;;;;5072429;28;20552;-79
2023/05/24 00:21:52;;;;;;;0.10;0.10;;;4.80;1.00;;;;;;5071692;28;20504;-79
2023/05/24 00:24:18;;;;;;;1.13;0.75;;;4.80;99.90;;;;;;5071358;28;20056;-78
2023/05/24 00:26:44;;;;;;;0.15;0.15;;;4.80;46.80;;;;;;5069469;28;20056;-79
2023/05/24 00:29:10;;;;;;;0.85;0.85;;;4.80;3.60;;;;;;5069999;28;20044;-80
2023/05/24 00:31:36;;;;;;;6.30;0.85;;;4.80;99.60;;;;;;5069515;28;20048;-79
2023/05/24 00:34:01;;;;;;;6.53;1.30;;;4.80;10.30;;;;;;5071473;28;20041;-78
2023/05/24 00:36:27;;;;;;;0.10;0.10;;;4.80;51.80;;;;;;5071155;28;20056;-78
2023/05/24 00:38:53;;;;;;;0.00;0.00;;;4.90;99.90;;;;;;5071586;28;20047;-78
2023/05/24 00:41:18;;;;;;;0.73;0.73;;;4.90;99.90;;;;;;5068085;28;20067;-78
2023/05/24 00:43:44;;;;;;;0.00;0.00;;;4.90;99.90;;;;;;5069841;28;20157;-78
2023/05/24 00:46:10;;;;;;;0.00;0.00;;;4.90;99.90;;;;;;5070737;28;20534;-79
2023/05/24 00:48:35;;;;;;;0.80;0.77;;;5.00;99.90;;;;;;5070186;28;20044;-80
2023/05/24 00:51:01;;;;;;;0.03;0.03;;;5.40;99.90;;;;;;5070017;28;20044;-79
2023/05/24 00:53:27;;;;;;;1.08;0.38;;;5.00;99.90;;;;;;5069225;28;20245;-79
2023/05/24 00:55:53;;;;;;;0.32;0.32;;;5.00;99.90;;;;;;5070907;28;20153;-79
2023/05/24 00:58:20;;;;;;;0.08;0.08;;;5.00;1.00;;;;;;5069775;28;20127;-79
2023/05/24 01:00:48;;;;;;;0.38;0.38;;;4.90;1.00;;;;;;5073160;28;20081;-79
2023/05/24 01:03:14;;;;;;;0.00;0.00;;;5.30;1.00;;;;;;5090253;28;20051;-79
2023/05/24 01:05:40;;;;;;;0.00;0.00;;;4.70;1.00;;;;;;5090774;28;20049;-79
2023/05/24 01:08:35;;;;;;;0.00;0.00;;;4.70;99.90;;;;;;5092386;28;20045;-80
2023/05/24 01:11:11;;;;;;;0.38;0.38;;;4.70;99.90;;;;;;5092473;28;20045;-78
2023/05/24 01:13:47;;;;;;;1.70;0.80;;;4.60;99.90;;;;;;5092720;28;20051;-79
2023/05/24 01:16:21;;;;;;;1.15;0.50;;;4.70;1.00;;;;;;5091855;28;20045;-78
2023/05/24 01:18:52;;;;;;;0.32;0.32;;;4.70;1.00;;;;;;5081599;28;20406;-78
2023/05/24 01:21:31;;;;;;;4.03;1.65;;;4.70;1.00;;;;;;5071980;28;20047;-78
2023/05/24 01:24:28;;;;;;;2.47;1.35;;;4.80;1.00;;;;;;5071381;28;20097;-78
2023/05/24 01:27:00;;;;;;;;;;;4.70;1.00;;;;;;5070915;28;20056;-78
2023/05/24 01:29:28;;;;;;;0.00;0.00;;;4.80;1.00;;;;;;5068779;28;19925;-78
2023/05/24 01:31:55;;;;;;;0.73;0.73;;;4.80;1.00;;;;;;5068383;28;20052;-78
2023/05/24 01:34:20;;;;;;;0.03;0.03;;;4.80;22.20;;;;;;5068666;28;20101;-78
2023/05/24 01:36:46;;;;;;;0.73;0.50;;;4.80;15.60;;;;;;5069490;28;20407;-79
2023/05/24 01:39:12;;;;;;;0.10;0.10;;;4.80;1.00;;;;;;5067430;28;20056;-78
2023/05/24 01:41:58;;;;;;;0.65;0.45;;;4.70;1.00;;;;;;5069156;28;20147;-79
2023/05/24 01:44:35;;;;;;;0.30;0.20;;;4.80;63.20;;;;;;5057826;28;20056;-79
2023/05/24 01:47:20;;;;;;;3.83;1.27;;;5.00;99.90;;;;;;5071264;28;20048;-80
2023/05/24 01:49:52;;;;;;;0.17;0.17;;;5.30;92.10;;;;;;5057186;28;20064;-78
2023/05/24 01:52:26;;;;;;;0.00;0.00;;;5.40;99.90;;;;;;5069652;28;20075;-79
2023/05/24 01:54:54;;;;;;;0.17;0.15;;;5.60;99.90;;;;;;5067735;28;20036;-79
2023/05/24 01:57:21;;;;;;;0.20;0.17;;;5.70;99.90;;;;;;5068297;28;20466;-78
2023/05/24 01:59:48;;;;;;;0.75;0.75;;;5.80;31.50;;;;;;5075405;28;20045;-78
2023/05/24 02:02:14;;;;;;;9.27;1.45;;;5.90;99.90;;;;;;5076251;28;20087;-79
2023/05/24 02:04:39;;;;;;;0.60;0.32;;;5.90;99.90;;;;;;5073926;28;20122;-79
2023/05/24 02:07:05;;;;;;;0.00;0.00;;;5.80;38.60;;;;;;5074094;28;20055;-78
2023/05/24 02:09:31;;;;;;;0.00;0.00;;;5.70;1.00;;;;;;5076807;28;20040;-79
2023/05/24 02:11:57;;;;;;;0.00;0.00;;;5.70;1.00;;;;;;5077245;28;20051;-79
2023/05/24 02:14:23;;;;;;;0.00;0.00;;;5.50;99.90;;;;;;5078122;28;20094;-79
2023/05/24 02:16:49;;;;;;;0.00;0.00;;;5.50;99.90;;;;;;5069968;28;20059;-80
2023/05/24 02:19:18;;;;;;;1.15;1.05;;;5.40;99.90;;;;;;5070434;28;20113;-79
2023/05/24 02:21:44;;;;;;;0.70;0.70;;;5.30;99.90;;;;;;5067001;28;20040;-78
2023/05/24 02:24:13;;;;;;;0.10;0.10;;;5.30;99.90;;;;;;5067710;28;20075;-78
2023/05/24 02:26:39;;;;;;;0.38;0.38;;;5.30;96.60;;;;;;5069622;28;20044;-80
2023/05/24 02:29:05;;;;;;;0.38;0.38;;;5.30;70.50;;;;;;5071309;28;20050;-79
2023/05/24 02:31:31;;;;;;;0.00;0.00;;;5.20;1.00;;;;;;5068513;28;20040;-79
2023/05/24 02:33:57;;;;;;;0.43;0.40;;;5.20;1.00;;;;;;5069369;28;20054;-79
2023/05/24 02:36:23;;;;;;;0.55;0.55;;;5.30;24.30;;;;;;5067810;28;20048;-79
2023/05/24 02:38:52;;;;;;;0.28;0.20;;;5.30;12.50;;;;;;5067978;28;20052;-80
2023/05/24 02:41:18;;;;;;;0.43;0.32;;;5.40;1.00;;;;;;5069219;28;20056;-80
2023/05/24 02:43:44;;;;;;;0.70;0.70;;;5.60;53.90;;;;;;5068508;28;20044;-79
2023/05/24 02:46:10;;;;;;;0.00;0.00;;;5.70;99.90;;;;;;5067381;28;20052;-79
2023/05/24 02:48:36;;;;;;;0.43;0.43;;;5.90;99.90;;;;;;5069910;28;20070;-80
2023/05/24 02:51:02;;;;;;;0.40;0.25;;;6.00;99.90;;;;;;5069155;28;20044;-79
2023/05/24 02:53:28;;;;;;;6.38;1.25;;;6.10;99.90;;;;;;5067731;28;20044;-79
2023/05/24 02:55:54;;;;;;;0.50;0.50;;;6.20;99.90;;;;;;5067339;28;20500;-78
2023/05/24 02:58:20;;;;;;;0.00;0.00;;;6.30;99.90;;;;;;5066767;28;20155;-78
2023/05/24 03:00:46;;;;;;;0.00;0.00;;;6.40;99.90;;;;;;5066631;28;20048;-78
2023/05/24 03:03:11;;;;;;;1.42;0.35;;;6.40;99.90;;;;;;5068633;28;20056;-79
2023/05/24 03:05:37;;;;;;;0.03;0.03;;;6.50;99.90;;;;;;5071248;28;20051;-79
2023/05/24 03:08:03;;;;;;;1.10;0.32;;;6.60;99.90;;;;;;5071242;28;20086;-78
2023/05/24 03:10:28;;;;;;;3.40;1.00;;;6.90;99.90;;;;;;5077584;28;20470;-79
2023/05/24 03:12:54;;;;;;;0.28;0.28;;;6.70;99.90;;;;;;5074306;28;20047;-79
2023/05/24 03:15:20;;;;;;;1.95;0.90;;;5.80;99.90;;;;;;5073799;28;20407;-78
2023/05/24 03:17:45;;;;;;;0.10;0.10;;;6.90;99.90;;;;;;5071036;28;20059;-78
2023/05/24 03:20:11;;;;;;;0.52;0.47;;;7.00;99.90;;;;;;5072635;28;20056;-79
2023/05/24 03:22:37;;;;;;;0.50;0.45;;;7.00;99.90;;;;;;5072775;28;20555;-80
2023/05/24 03:25:03;;;;;;;1.75;0.55;;;7.10;99.90;;;;;;5072871;28;20080;-78
2023/05/24 03:27:29;;;;;;;1.33;0.77;;;7.20;99.90;;;;;;5072343;28;20045;-79
2023/05/24 03:29:54;;;;;;;0.08;0.08;;;7.20;99.90;;;;;;5074018;28;20037;-79
2023/05/24 03:32:20;;;;;;;4.00;1.60;;;7.20;99.90;;;;;;5073673;28;20453;-79
2023/05/24 03:34:46;;;;;;;9.98;1.58;;;7.20;99.90;;;;;;5072275;28;20503;-82
2023/05/24 03:37:11;;;;;;;0.73;0.73;;;7.30;99.90;;;;;;5068951;28;20052;-78
2023/05/24 03:39:37;;;;;;;0.00;0.00;;;7.20;99.90;;;;;;5072291;28;20062;-79
2023/05/24 03:42:03;;;;;;;1.55;0.47;;;7.10;99.90;;;;;;5073734;28;20102;-79
2023/05/24 03:44:28;;;;;;;0.30;0.30;;;7.00;99.90;;;;;;5055762;28;20040;-79
2023/05/24 03:46:54;;;;;;;0.00;0.00;;;6.90;99.90;;;;;;5073881;28;20545;-78
2023/05/24 03:49:20;;;;;;;5.47;1.10;;;6.80;99.90;;;;;;5071647;28;20037;-80
2023/05/24 03:51:45;;;;;;;0.10;0.10;;;6.80;99.90;;;;;;5072141;28;20067;-79
2023/05/24 03:54:11;;;;;;;1.75;0.20;;;6.80;99.90;;;;;;5071741;28;20051;-78
2023/05/24 03:56:37;;;;;;;0.40;0.30;;;6.90;99.90;;;;;;5070777;28;20483;-79
2023/05/24 03:59:02;;;;;;;0.30;0.20;;;7.10;99.90;;;;;;5071478;28;20106;-80
2023/05/24 04:01:30;;;;;;;0.00;0.00;;;7.10;99.90;;;;;;5070419;28;20580;-79
2023/05/24 04:04:00;;;;;;;0.10;0.10;;;7.20;99.90;;;;;;5071473;28;20064;-79
2023/05/24 04:06:28;;;;;;;14.15;1.02;;;7.30;99.90;;;;;;5071759;28;20388;-79
2023/05/24 04:08:58;;;;;;;0.63;0.45;;;7.40;99.90;;;;;;5071651;28;20047;-79
2023/05/24 04:11:27;;;;;;;3.88;0.45;;;7.50;99.90;;;;;;5090634;28;20040;-80
2023/05/24 04:13:57;;;;;;;1.80;0.60;;;7.60;99.90;;;;;;5093815;28;20028;-79
2023/05/24 04:16:24;;;;;;;8.07;1.20;;;7.60;99.90;;;;;;5092870;28;20363;-79
2023/05/24 04:18:50;;;;;;;2.72;2.00;;;7.70;99.90;;;;;;5093164;28;20060;-80
2023/05/24 04:21:16;;;;;;;0.80;0.52;;;7.80;99.90;;;;;;5092651;28;20047;-79
2023/05/24 04:23:42;;;;;;;0.35;0.35;;;8.10;99.90;;;;;;5092859;28;20037;-78
2023/05/24 04:26:09;;;;;;;1.00;0.50;;;8.00;99.90;;;;;;5086424;28;20076;-80
2023/05/24 04:28:35;;;;;;;1.63;0.68;;;8.10;99.90;;;;;;5074315;28;20131;-79
2023/05/24 04:31:02;;;;;;;3.20;0.98;;;8.30;87.20;;;;;;5071212;28;20052;-79
2023/05/24 04:33:27;;;;;;;0.15;0.15;;;8.40;83.20;;;;;;5070442;28;20888;-80
2023/05/24 04:35:53;;;;;;;1.45;0.63;;;8.60;80.10;;;;;;5071820;28;20052;-79
2023/05/24 04:38:19;;;;;;;0.00;0.00;;;8.80;23.20;;;;;;5071274;28;20096;-79
2023/05/24 04:40:44;;;;;;;2.47;1.50;;;9.10;1.00;;;;;;5069441;28;20132;-78
2023/05/24 04:43:10;;;;;;;18.08;0.55;;;9.20;99.90;;;;;;5068495;28;20406;-79
2023/05/24 04:45:37;;;;;;;1.08;1.02;;;9.40;99.90;;;;;;5069586;28;20048;-79
2023/05/24 04:48:03;;;;;;;0.95;0.63;;;9.60;99.90;;;;;;5072867;28;20083;-80
2023/05/24 04:50:29;;;;;;;2.92;1.80;;;10.50;99.90;;;;;;5071808;28;20048;-79
2023/05/24 04:52:55;;;;;;;0.00;0.00;;;10.00;99.90;;;;;;5071617;28;20083;-80
2023/05/24 04:55:21;;;;;;;1.80;1.35;;;10.00;99.90;;;;;;5069907;28;20045;-78
2023/05/24 04:57:47;;;;;;;0.00;0.00;;;10.10;1.00;;;;;;5068452;28;20139;-80
2023/05/24 05:00:13;;;;;;;1.15;0.95;;;10.10;99.50;;;;;;5071224;28;20060;-79
2023/05/24 05:02:38;;;;;;;0.00;0.00;;;10.10;1.00;;;;;;5071965;28;20049;-79
2023/05/24 05:05:05;;;;;;;6.55;0.30;;;10.00;30.00;;;;;;5069758;28;20052;-79
2023/05/24 05:07:30;;;;;;;0.03;0.03;;;10.00;99.90;;;;;;5071314;28;20070;-78
2023/05/24 05:09:56;;;;;;;0.20;0.15;;;10.00;99.90;;;;;;5068524;28;20119;-79
2023/05/24 05:12:22;;;;;;;0.30;0.30;;;10.00;1.00;;;;;;5067381;28;20047;-79
2023/05/24 05:14:47;;;;;;;1.23;0.65;;;10.00;1.00;;;;;;5067944;28;20410;-78
2023/05/24 05:17:13;;;;;;;1.35;0.45;;;10.00;99.90;;;;;;5069558;28;20414;-79
2023/05/24 05:19:38;;;;;;;0.00;0.00;;;9.90;19.90;;;;;;5069865;28;20064;-80
2023/05/24 05:22:04;;;;;;;0.65;0.65;;;9.90;8.20;;;;;;5069191;28;20044;-78
2023/05/24 05:24:30;;;;;;;1.33;1.23;;;9.80;1.00;;;;;;5066814;28;20045;-79
2023/05/24 05:26:56;;;;;;;1.27;1.13;;;9.80;99.90;;;;;;5067817;28;20045;-78
2023/05/24 05:29:21;;;;;;;0.55;0.55;;;9.80;99.90;;;;;;5069163;28;20040;-79
2023/05/24 05:31:47;;;;;;;0.00;0.00;;;9.90;99.90;;;;;;5069106;28;20044;-79
2023/05/24 05:34:12;;;;;;;1.45;0.88;;;10.00;99.90;;;;;;5068995;28;20507;-79
2023/05/24 05:36:39;;;;;;;6.10;1.67;;;10.00;99.90;;;;;;5069012;28;20040;-78
2023/05/24 05:39:08;;;;;;;0.05;0.05;;;10.20;94.40;;;;;;5067673;28;20663;-78
2023/05/24 05:41:44;;;;;;;0.98;0.88;;;10.50;84.90;;;;;;5068618;28;20040;-78
2023/05/24 05:44:11;;;;;;;;;;;11.10;1.00;;;;;;5068963;28;20074;-79
2023/05/24 05:46:37;;;;;;;0.03;0.03;;;11.10;99.90;;;;;;5070502;28;19924;-79
2023/05/24 05:49:02;;;;;;;4.78;1.33;;;11.40;1.00;;;;;;5070249;28;20413;-79
2023/05/24 05:51:29;;;;;;;1.23;0.57;;;11.70;99.90;;;;;;5066313;28;20047;-79
2023/05/24 05:53:54;;;;;;;5.47;1.55;;;12.00;1.00;;;;;;5066563;28;20052;-79
2023/05/24 05:56:20;;;;;;;0.63;0.63;;;12.40;99.90;;;;;;5067367;28;20059;-78
2023/05/24 05:58:46;;;;;;;2.42;1.10;;;12.30;99.90;;;;;;5064436;28;20123;-80
2023/05/24 06:01:11;;;;;;;0.45;0.45;;;12.60;99.90;;;;;;5065895;28;20046;-79
2023/05/24 06:03:37;;;;;;;0.40;0.25;;;12.80;99.90;;;;;;5065812;28;20064;-79
2023/05/24 06:06:04;;;;;;;0.20;0.10;;;13.00;77.40;;;;;;5064220;28;20057;-79
2023/05/24 06:08:33;;;;;;;1.10;0.52;;;13.30;8.30;;;;;;5066579;28;20123;-79
2023/05/24 06:11:00;;;;;;;1.02;0.85;;;13.40;1.00;;;;;;5066661;28;20040;-79
2023/05/24 06:13:27;;;;;;;0.00;0.00;;;13.40;1.00;;;;;;5067063;28;20562;-78
2023/05/24 06:15:53;;;;;;;1.95;1.45;;;13.20;1.00;;;;;;5065813;28;20040;-79
2023/05/24 06:18:19;;;;;;;0.90;0.32;;;13.00;1.00;;;;;;5067053;28;20040;-78
2023/05/24 06:20:45;;;;;;;5.75;0.50;;;13.20;1.00;;;;;;5064130;28;20491;-79
2023/05/24 06:23:11;;;;;;;0.00;0.00;;;13.20;1.00;;;;;;5064546;28;20045;-79
2023/05/24 06:25:37;;;;;;;0.63;0.60;;;13.20;1.00;;;;;;5064353;28;20463;-79
2023/05/24 06:28:03;;;;;;;1.60;1.10;;;13.40;1.00;;;;;;5067226;28;20121;-79
2023/05/24 06:30:29;;;;;;;0.57;0.40;;;13.30;99.90;;;;;;5067327;28;20045;-79
2023/05/24 06:32:55;;;;;;;0.25;0.25;;;13.30;1.00;;;;;;5064676;28;20052;-79
2023/05/24 06:35:21;;;;;;;1.23;0.68;;;13.70;1.00;;;;;;5064003;28;20414;-78
2023/05/24 06:37:47;;;;;;;0.95;0.47;;;14.00;99.90;;;;;;5063844;28;20052;-78
2023/05/24 06:40:13;;;;;;;0.65;0.20;;;14.40;99.90;;;;;;5063999;28;20143;-78
2023/05/24 06:42:39;;;;;;;0.20;0.20;;;14.30;99.90;;;;;;5067756;28;20044;-79
2023/05/24 06:45:05;;;;;;;0.10;0.10;;;13.80;99.90;;;;;;5064458;28;20082;-79
2023/05/24 06:47:31;;;;;;;4.43;0.85;;;13.70;99.90;;;;;;5066113;28;20044;-79
2023/05/24 06:49:56;;;;;;;2.65;0.38;;;13.30;99.90;;;;;;5068475;28;20483;-79
2023/05/24 06:52:22;;;;;;;0.10;0.10;;;13.30;99.90;;;;;;5067474;28;20126;-79
2023/05/24 06:54:49;;;;;;;0.73;0.35;;;13.50;99.90;;;;;;5070815;28;20044;-79
2023/05/24 06:57:14;;;;;;;0.73;0.52;;;14.30;99.90;;;;;;5071800;28;20044;-79
2023/05/24 06:59:40;;;;;;;0.17;0.17;;;14.90;99.90;;;;;;5068022;28;20048;-78
2023/05/24 07:02:06;;;;;;;0.68;0.52;;;15.60;99.90;;;;;;5068118;28;20113;-79
2023/05/24 07:04:31;;;;;;;1.08;0.70;;;15.60;99.90;;;;;;5067662;28;20044;-79
2023/05/24 07:06:57;;;;;;;1.23;0.63;;;16.10;99.90;;;;;;5067168;28;20416;-79
2023/05/24 07:09:23;;;;;;;1.23;0.82;;;15.50;99.90;;;;;;5067451;28;20049;-79
2023/05/24 07:11:48;;;;;;;0.35;0.20;;;15.10;99.90;;;;;;5069490;28;20055;-79
2023/05/24 07:14:14;;;;;;;0.85;0.45;;;14.70;99.90;;;;;;5071145;28;20075;-79
2023/05/24 07:16:40;;;;;;;0.43;0.38;;;14.70;99.90;;;;;;5069552;28;20424;-79
2023/05/24 07:19:06;;;;;;;2.10;0.95;;;15.00;99.90;;;;;;5067090;28;20080;-79
2023/05/24 07:21:32;;;;;;;0.00;0.00;;;14.30;99.90;;;;;;5066143;28;20536;-78
2023/05/24 07:23:58;;;;;;;0.17;0.10;;;14.60;99.90;;;;;;5067647;28;20582;-79
2023/05/24 07:26:23;;;;;;;0.05;0.00;;;15.40;99.90;;;;;;5067609;28;20044;-79
2023/05/24 07:28:49;;;;;;;0.55;0.55;;;15.20;99.90;;;;;;5067868;28;20063;-79
2023/05/24 07:31:15;;;;;;;1.00;0.47;;;15.00;99.90;;;;;;5078086;28;20082;-78
2023/05/24 07:33:41;;;;;;;5.47;0.38;;;15.00;99.90;;;;;;5093201;28;20039;-77
2023/05/24 07:36:07;;;;;;;0.10;0.10;;;15.90;99.90;;;;;;5093304;28;20059;-78
2023/05/24 07:38:33;;;;;;;1.42;0.82;;;16.90;99.90;;;;;;5092916;28;20059;-79
2023/05/24 07:41:02;;;;;;;0.43;0.43;;;16.50;99.90;;;;;;5092715;28;20052;-77
2023/05/24 07:43:28;;;;;;;0.22;0.20;;;16.10;99.90;;;;;;5092489;28;20042;-78
2023/05/24 07:45:54;;;;;;;0.10;0.10;;;16.80;99.90;;;;;;5087359;28;20083;-78
2023/05/24 07:48:20;;;;;;;0.47;0.20;;;17.30;99.90;;;;;;5074316;28;20182;-78
2023/05/24 07:50:48;;;;;;;0.85;0.65;;;17.80;99.90;;;;;;5066540;28;20044;-79
2023/05/24 07:53:14;;;;;;;0.15;0.15;;;17.70;99.90;;;;;;5068442;28;20044;-79
2023/05/24 07:55:40;;;;;;;1.92;1.25;;;17.40;99.90;;;;;;5069920;28;20049;-79
2023/05/24 07:58:06;;;;;;;0.43;0.32;;;17.10;99.90;;;;;;5070273;28;20128;-79
2023/05/24 08:00:32;;;;;;;0.30;0.30;;;17.70;99.90;;;;;;5068351;28;20045;-79
2023/05/24 08:02:59;;;;;;;1.30;0.52;;;18.20;99.90;;;;;;5067504;28;20060;-80
2023/05/24 08:05:25;;;;;;;6.18;1.30;;;17.50;99.90;;;;;;5070379;28;20138;-79
2023/05/24 08:07:52;;;;;;;0.03;0.03;;;17.10;99.90;;;;;;5068119;28;20048;-78
2023/05/24 08:10:18;;;;;;;1.45;0.98;;;16.90;99.90;;;;;;5066016;28;20060;-80
2023/05/24 08:12:43;;;;;;;0.65;0.45;;;17.30;99.90;;;;;;5065593;28;20058;-78
2023/05/24 08:15:10;;;;;;;0.38;0.30;;;17.30;99.90;;;;;;5068438;28;20048;-79
2023/05/24 08:17:37;;;;;;;0.55;0.40;;;16.70;99.90;;;;;;5066213;28;20040;-78
2023/05/24 08:20:08;;;;;;;1.13;0.65;;;16.20;99.90;;;;;;5064794;28;20044;-79
2023/05/24 08:22:34;;;;;;;0.20;0.20;;;16.10;97.20;;;;;;5065356;28;20045;-78
2023/05/24 08:24:59;;;;;;;2.10;1.25;;;15.70;99.60;;;;;;5065572;28;20051;-79
2023/05/24 08:27:29;;;;;;;0.73;0.30;;;15.70;96.70;;;;;;5066054;28;20367;-79
2023/05/24 08:29:54;;;;;;;0.00;0.00;;;15.90;95.40;;;;;;5066192;28;20079;-78
2023/05/24 08:32:20;;;;;;;0.17;0.17;;;16.10;99.90;;;;;;5066991;28;20072;-79
2023/05/24 08:34:46;;;;;;;0.28;0.25;;;17.30;99.90;;;;;;5066991;28;20463;-78
2023/05/24 08:37:14;;;;;;;0.10;0.10;;;17.50;99.90;;;;;;5067739;28;20041;-79
2023/05/24 08:39:40;;;;;;;0.43;0.32;;;17.30;99.90;;;;;;5069741;28;20494;-79
2023/05/24 08:42:06;;;;;;;1.98;0.47;;;16.80;91.40;;;;;;5069087;28;20041;-79
2023/05/24 08:45:02;;;;;;;0.13;0.10;;;16.20;78.20;;;;;;5068362;28;20056;-78
2023/05/24 08:47:29;;;;;;;0.90;0.68;;;16.00;75.20;;;;;;5063341;28;20052;-78
2023/05/24 08:49:56;;;;;;;5.60;1.00;;;17.60;99.90;;;;;;5064783;28;20127;-78
2023/05/24 08:52:22;;;;;;;1.27;0.25;;;19.30;99.90;;;;;;5065050;28;20045;-79
2023/05/24 08:54:51;;;;;;;4.18;0.65;;;20.90;99.90;;;;;;5065985;28;20105;-78
2023/05/24 08:57:17;;;;;;;0.00;0.00;;;20.00;99.90;;;;;;5063713;28;20197;-77
2023/05/24 08:59:43;;;;;;;0.00;0.00;;;19.40;99.90;;;;;;5064592;28;20119;-78
2023/05/24 09:02:13;;;;;;;0.50;0.50;;;20.00;99.90;;;;;;5064869;28;20136;-78
2023/05/24 09:04:40;;;;;;;3.85;1.45;;;19.40;99.90;;;;;;5064210;28;20090;-78
2023/05/24 09:07:07;;;;;;;0.57;0.47;;;18.70;92.20;;;;;;5068091;28;20499;-79
2023/05/24 09:09:36;;;;;;;0.20;0.20;;;18.30;79.80;;;;;;5067244;28;20502;-78
2023/05/24 09:12:04;;;;;;;0.43;0.35;;;18.10;78.30;;;;;;5064312;28;20564;-78
2023/05/24 09:14:30;;;;;;;0.20;0.10;;;18.40;75.30;;;;;;5064231;28;20083;-78
2023/05/24 09:16:56;;;;;;;0.25;0.25;;;18.40;82.60;;;;;;5064530;28;20072;-78
2023/05/24 09:19:22;;;;;;;0.00;0.00;;;17.80;69.20;;;;;;5064460;28;20132;-78
2023/05/24 09:21:48;;;;;;;0.30;0.20;;;17.60;61.50;;;;;;5064001;28;20059;-78
2023/05/24 09:24:15;;;;;;;1.45;0.45;;;17.50;57.50;;;;;;5064602;28;20051;-78
2023/05/24 09:26:41;;;;;;;0.52;0.45;;;18.20;75.10;;;;;;5064755;28;20040;-78
2023/05/24 09:29:08;;;;;;;0.55;0.55;;;18.10;74.10;;;;;;5065639;28;20045;-78
2023/05/24 09:31:35;;;;;;;0.35;0.10;;;17.70;71.20;;;;;;5064483;28;20040;-78
2023/05/24 09:34:01;;;;;;;4.60;0.45;;;17.80;78.20;;;;;;5064507;28;20135;-78
2023/05/24 09:36:32;;;;;;;2.65;1.65;;;17.50;66.20;;;;;;5063839;28;20062;-78
2023/05/24 09:39:07;;;;;;;4.65;0.55;;;17.40;70.00;;;;;;5064102;28;20048;-78
2023/05/24 09:41:33;;;;;;;0.65;0.63;;;17.40;69.90;;;;;;5063788;28;20127;-78
2023/05/24 09:44:00;;;;;;;1.10;0.80;;;17.60;77.90;;;;;;5063632;28;20131;-78
2023/05/24 09:46:28;;;;;;;9.02;0.38;;;18.20;93.20;;;;;;5063515;28;20063;-78
2023/05/24 09:49:02;;;;;;;0.90;0.63;;;18.30;91.90;;;;;;5063950;28;20048;-78
2023/05/24 09:51:28;;;;;;;0.08;0.08;;;18.50;95.50;;;;;;5061599;28;20044;-78
2023/05/24 09:53:59;;;;;;;0.20;0.17;;;19.40;99.90;;;;;;5063783;28;20086;-78
2023/05/24 09:56:25;;;;;;;0.20;0.20;;;19.90;99.90;;;;;;5063774;28;20049;-78
2023/05/24 09:58:52;;;;;;;0.43;0.35;;;20.70;99.90;;;;;;5063690;28;20392;-78
2023/05/24 10:01:23;;;;;;;0.10;0.10;;;20.90;99.90;;;;;;5063721;28;20507;-78
2023/05/24 10:03:56;;;;;;;0.52;0.38;;;20.90;99.90;;;;;;5064004;28;20056;-78
2023/05/24 10:06:22;;;;;;;1.58;1.48;;;20.40;99.90;;;;;;5063898;28;20078;-78
2023/05/24 10:08:50;;;;;;;0.45;0.20;;;20.20;99.90;;;;;;5062199;28;20056;-78
2023/05/24 10:11:19;;;;;;;0.10;0.10;;;20.10;99.90;;;;;;5063717;28;20056;-78
2023/05/24 10:13:47;;;;;;;0.88;0.73;;;19.40;99.90;;;;;;5063699;28;20500;-78
2023/05/24 10:16:12;;;;;;;3.88;1.02;;;19.00;94.30;;;;;;5063384;28;20044;-82
2023/05/24 10:18:38;;;;;;;0.20;0.10;;;18.50;90.90;;;;;;5063889;28;20052;-78
2023/05/24 10:21:08;;;;;;;0.52;0.50;;;18.40;87.90;;;;;;5063790;28;20041;-78
2023/05/24 10:23:37;;;;;;;0.47;0.40;;;19.60;99.90;;;;;;5045251;28;20080;-78
2023/05/24 10:26:06;;;;;;;0.10;0.10;;;18.90;92.40;;;;;;5062566;28;20088;-77
2023/05/24 10:28:35;;;;;;;0.85;0.28;;;19.30;96.80;;;;;;5064140;28;20041;-79
2023/05/24 10:31:16;;;;;;;0.55;0.47;;;19.30;99.90;;;;;;5064333;28;20107;-78
2023/05/24 10:33:45;;;;;;;0.75;0.40;;;19.70;99.90;;;;;;5065393;28;20079;-79
2023/05/24 10:36:14;;;;;;;0.25;0.22;;;20.30;99.90;;;;;;5064599;28;20048;-78
2023/05/24 10:38:40;;;;;;;2.47;0.98;;;20.80;99.90;;;;;;5066445;28;20040;-79
2023/05/24 10:41:11;;;;;;;0.52;0.52;;;21.20;99.90;;;;;;5066553;28;20381;-78
2023/05/24 10:43:37;;;;;;;0.75;0.40;;;20.40;99.90;;;;;;5063258;28;20052;-77
2023/05/24 10:46:04;;;;;;;0.93;0.88;;;19.80;93.40;;;;;;5065986;28;20040;-79
2023/05/24 10:48:35;;;;;;;0.05;0.05;;;19.60;84.30;;;;;;5065949;28;20040;-78
2023/05/24 10:51:20;;;;;;;0.08;0.08;;;20.50;99.90;;;;;;5068277;28;20398;-79
2023/05/24 10:53:49;;;;;;;0.20;0.20;;;20.90;99.90;;;;;;5088794;28;20028;-77
2023/05/24 10:56:15;;;;;;;0.57;0.38;;;21.20;99.90;;;;;;5088208;28;20104;-76
2023/05/24 10:58:56;;;;;;;0.68;0.38;;;20.70;94.60;;;;;;5089300;28;20036;-78
2023/05/24 11:01:27;;;;;;;0.95;0.55;;;20.10;79.40;;;;;;5089379;28;20040;-78
2023/05/24 11:04:06;;;;;;;2.92;1.08;;;19.90;79.30;;;;;;5089187;28;20059;-79
2023/05/24 11:07:08;;;;;;;0.35;0.35;;;19.40;72.20;;;;;;5089503;28;20045;-77
2023/05/24 11:09:34;;;;;;;0.35;0.30;;;18.20;51.00;;;;;;5072274;28;20059;-77
2023/05/24 11:12:06;;;;;;;1.23;0.88;;;18.00;52.90;;;;;;5066687;28;20637;-78
2023/05/24 11:14:39;;;;;;;1.75;0.52;;;17.50;48.60;;;;;;5064543;28;20079;-78
2023/05/24 11:17:06;;;;;;;3.40;1.30;;;17.10;43.40;;;;;;5063830;28;20545;-78
2023/05/24 11:19:35;;;;;;;0.13;0.13;;;16.60;38.90;;;;;;5063169;28;20502;-78
2023/05/24 11:22:07;;;;;;;0.45;0.45;;;16.30;38.60;;;;;;5062855;28;20102;-77
2023/05/24 11:24:34;;;;;;;1.10;0.75;;;16.10;43.50;;;;;;5062587;28;20514;-77
2023/05/24 11:27:01;;;;;;;2.03;0.80;;;16.10;51.80;;;;;;5063204;28;20040;-78
2023/05/24 11:29:27;;;;;;;0.88;0.30;;;16.20;60.10;;;;;;5064151;28;20098;-78
2023/05/24 11:32:03;;;;;;;5.35;1.33;;;16.20;60.80;;;;;;5064530;28;20550;-78
2023/05/24 11:34:29;;;;;;;0.10;0.10;;;16.20;66.50;;;;;;5067604;28;20072;-78
2023/05/24 11:36:55;;;;;;;5.78;2.40;;;16.30;67.40;;;;;;5067483;28;20048;-78
2023/05/24 11:39:22;;;;;;;23.45;3.38;;;16.50;74.30;;;;;;5067391;28;20044;-78
2023/05/24 11:41:48;;;;;;;0.40;0.30;;;16.50;67.90;;;;;;5065750;28;20485;-77
2023/05/24 11:44:17;;;;;;;2.10;1.30;;;16.30;63.90;;;;;;5066878;28;20049;-78
2023/05/24 11:46:43;;;;;;;0.25;0.25;;;16.30;64.10;;;;;;5067538;28;20059;-78
2023/05/24 11:49:12;;;;;;;0.80;0.55;;;16.10;69.30;;;;;;5065135;28;20048;-77
2023/05/24 11:51:38;;;;;;;1.40;0.40;;;16.30;59.20;;;;;;5066420;28;20048;-77
2023/05/24 11:54:04;;;;;;;1.52;0.45;;;16.10;62.70;;;;;;5066071;28;20050;-77
2023/05/24 11:56:30;;;;;;;0.00;0.00;;;16.10;53.40;;;;;;5065923;28;20044;-77
2023/05/24 11:59:03;;;;;;;0.45;0.30;;;16.40;63.50;;;;;;5065483;28;20055;-77
2023/05/24 12:01:28;;;;;;;0.55;0.43;;;16.70;67.10;;;;;;5066084;28;20412;-77
2023/05/24 12:03:54;;;;;;;0.30;0.30;;;17.00;76.80;;;;;;5065710;28;20062;-78
2023/05/24 12:06:21;;;;;;;0.40;0.40;;;16.80;73.00;;;;;;5067093;28;21048;-78
2023/05/24 12:08:47;;;;;;;3.15;2.03;;;17.20;82.30;;;;;;5065998;28;20036;-78
2023/05/24 12:11:14;;;;;;;0.05;0.05;;;17.20;76.90;;;;;;5065394;28;20051;-77
2023/05/24 12:13:40;;;;;;;0.15;0.15;;;17.00;72.20;;;;;;5064396;28;20044;-77
2023/05/24 12:16:06;;;;;;;0.10;0.05;;;17.30;69.00;;;;;;5065755;28;20075;-78
2023/05/24 12:18:32;;;;;;;0.90;0.75;;;16.60;71.60;;;;;;5066545;28;20114;-78
2023/05/24 12:20:58;;;;;;;1.45;1.13;;;16.40;53.40;;;;;;5067455;28;20483;-78
2023/05/24 12:23:30;;;;;;;4.35;0.77;;;16.50;58.20;;;;;;5066779;28;20078;-78
2023/05/24 12:26:00;;;;;;;1.00;0.80;;;16.70;63.60;;;;;;5067166;28;20371;-78
2023/05/24 12:28:27;;;;;;;0.32;0.22;;;16.80;67.60;;;;;;5066745;28;20056;-78
2023/05/24 12:30:53;;;;;;;1.80;1.13;;;16.60;65.70;;;;;;5065584;28;20040;-77
2023/05/24 12:33:19;;;;;;;0.98;0.47;;;16.50;63.90;;;;;;5065298;28;20121;-78
2023/05/24 12:35:47;;;;;;;0.50;0.50;;;16.20;60.20;;;;;;5065090;28;20049;-78
2023/05/24 12:38:12;;;;;;;0.05;0.05;;;16.20;63.40;;;;;;5047426;28;20434;-78
2023/05/24 12:40:42;;;;;;;1.02;0.85;;;16.50;80.00;;;;;;5064979;28;20052;-77
2023/05/24 12:43:09;;;;;;;0.70;0.22;;;16.60;68.60;;;;;;5064879;28;20149;-78
2023/05/24 12:45:35;;;;;;;0.32;0.30;;;17.00;77.70;;;;;;5063869;28;20079;-78
2023/05/24 12:48:03;;;;;;;0.43;0.35;;;17.00;73.60;;;;;;5065639;28;20061;-78
2023/05/24 12:50:30;;;;;;;0.15;0.10;;;17.20;71.20;;;;;;5064895;28;20099;-78
2023/05/24 12:52:56;;;;;;;0.35;0.32;;;17.10;65.60;;;;;;5065259;28;20052;-78
2023/05/24 12:55:24;;;;;;;2.42;1.08;;;16.90;62.00;;;;;;5064687;28;20119;-76